Terminal Aerodrome Forecast
Issued by NWS Wilmington, OH

Current Version | Previous Version | Text Only | Print | Product List | Glossary Off
Versions: 1 2 3 4 5 6 7 8 9 10 11 12 13 14 15 16 17

000
FTUS41 KILN 212336
TAFILN
TAF
KILN 212336Z 2200/2224 36008KT P6SM VCSH BKN080
     FM221200 04012KT P6SM VCSH OVC045
     FM221400 05012KT 5SM -SHRA OVC035
     FM221700 05014KT P6SM VCSH OVC035
     FM221800 05014KT P6SM OVC035=

USA.gov is the U.S. government's official web portal to all federal, state and local government web resources and services.